Time;durP1;ratioP1;P1;durP2;ratioP2;P2;SDS_P1;SDS_P2;PMS_P1;PMS_P2;Temp;Humidity;BMP_temperature;BMP_pressure;BME280_temperature;BME280_humidity;BME280_pressure;Samples;Min_cycle;Max_cycle;Signal;HPM_P1;HPM_P2
2022/04/02 00:01:50;;;;;;;5.15;2.15;;;;;;;0.57;72.12;101542.28;4682090;30;20163;-77
2022/04/02 00:07:39;;;;;;;5.07;2.40;;;;;;;-0.53;71.10;101360.53;4685128;30;20056;-78
2022/04/02 00:10:23;;;;;;;4.82;2.33;;;;;;;-0.41;71.47;101365.50;4655231;30;20527;-78
2022/04/02 00:12:56;;;;;;;4.13;2.20;;;;;;;0.61;70.98;101549.03;4685912;30;20116;-79
2022/04/02 00:15:22;;;;;;;4.82;2.20;;;;;;;0.39;69.87;101509.44;4685835;30;20034;-75
2022/04/02 00:17:48;;;;;;;5.07;2.30;;;;;;;0.43;70.23;101513.66;4684584;30;20036;-75
2022/04/02 00:20:13;;;;;;;3.60;2.08;;;;;;;0.27;70.55;101487.53;4685514;30;20030;-76
2022/04/02 00:23:35;;;;;;;3.28;1.90;;;;;;;0.65;70.81;101545.59;4685685;30;20026;-76
2022/04/02 00:25:24;;;;;;;3.97;2.15;;;;;;;0.58;69.85;101536.34;4685184;30;20041;-76
2022/04/02 00:43:34;;;;;;;4.10;2.30;;;;;;;-0.54;70.05;101355.47;4668238;30;19982;-76
2022/04/02 01:01:07;;;;;;;4.22;2.05;;;;;;;-0.04;71.29;101464.97;4944107;25;20333;-77
2022/04/02 01:08:42;;;;;;;3.92;2.30;;;;;;;0.41;70.42;101534.00;4733885;25;20064;-77
2022/04/02 01:11:08;;;;;;;5.03;2.30;;;;;;;0.28;70.14;101520.53;4701800;30;20045;-76
2022/04/02 01:13:34;;;;;;;3.72;2.03;;;;;;;0.48;70.01;101552.53;4700778;30;20029;-77
2022/04/02 01:15:59;;;;;;;3.53;1.95;;;;;;;0.38;69.81;101538.25;4701950;30;20124;-78
2022/04/02 01:18:25;;;;;;;4.63;2.20;;;;;;;0.44;69.36;101545.81;4700819;30;20044;-77
2022/04/02 01:20:52;;;;;;;4.28;2.25;;;;;;;0.39;69.93;101540.75;4702230;30;20029;-77
2022/04/02 01:23:17;;;;;;;4.68;2.15;;;;;;;0.48;70.27;101552.53;4701922;30;20038;-76
2022/04/02 01:25:43;;;;;;;4.43;2.10;;;;;;;0.29;69.53;101526.47;4701369;30;20048;-76
2022/04/02 01:28:11;;;;;;;3.67;2.20;;;;;;;0.46;70.12;101555.09;4701955;30;20037;-77
2022/04/02 01:30:36;;;;;;;2.47;1.83;;;;;;;0.29;69.39;101523.94;4700601;30;20037;-76
2022/04/02 01:33:05;;;;;;;4.25;2.30;;;;;;;0.45;69.39;101555.97;4701874;30;20487;-77
2022/04/02 01:35:31;;;;;;;4.47;2.50;;;;;;;0.21;69.66;101513.03;4701757;30;20055;-76
2022/04/02 01:37:56;;;;;;;3.78;1.90;;;;;;;0.45;69.81;101547.50;4701546;30;20035;-78
2022/04/02 01:40:21;;;;;;;5.05;2.08;;;;;;;0.44;69.53;101546.66;4701509;30;20100;-79
2022/04/02 01:46:02;;;;;;;4.13;1.85;;;;;;;0.42;70.23;101548.38;4682189;30;20422;-78
2022/04/02 01:48:56;;;;;;;4.43;2.15;;;;;;;-0.06;70.17;101471.78;4701228;30;20124;-78
2022/04/02 01:51:51;;;;;;;3.05;2.15;;;;;;;-0.63;70.16;101376.69;4675614;30;20042;-78
2022/04/02 01:54:26;;;;;;;3.13;1.90;;;;;;;-0.29;70.20;101443.22;4699649;30;20049;-79
2022/04/02 02:00:31;;;;;;;4.47;1.95;;;;;;;-0.18;69.83;101483.75;4701163;30;20075;-78
2022/04/02 02:03:15;;;;;;;5.60;2.22;;;;;;;0.31;70.49;101562.03;4701197;30;20029;-78
2022/04/02 02:05:41;;;;;;;2.97;1.95;;;;;;;-0.12;70.26;101501.44;4701204;30;20030;-79
2022/04/02 02:08:40;;;;;;;5.05;2.30;;;;;;;0.26;70.29;101560.38;4700820;30;20133;-79
2022/04/02 02:18:01;;;;;;;4.10;2.28;;;;;;;-0.22;70.06;101487.13;4701027;30;20072;-79
2022/04/02 02:20:44;;;;;;;3.65;2.05;;;;;;;-0.26;70.15;101488.03;4700819;30;20113;-79
2022/04/02 02:23:25;;;;;;;5.40;2.13;;;;;;;-0.90;70.52;101388.69;4701004;30;20037;-79
2022/04/02 02:29:13;;;;;;;4.32;2.25;;;;;;;-1.00;69.64;101387.09;4700480;30;20080;-79
2022/04/02 02:31:57;;;;;;;4.18;2.13;;;;;;;0.16;70.35;101581.63;4685453;30;20034;-78
2022/04/02 02:37:11;;;;;;;6.55;2.72;;;;;;;-0.91;69.45;101406.47;4700946;30;20138;-79
2022/04/02 02:39:58;;;;;;;3.42;2.00;;;;;;;-0.21;70.14;101519.28;4685177;30;20033;-80
2022/04/02 02:42:32;;;;;;;3.97;2.15;;;;;;;-0.26;70.24;101514.25;4700207;30;20536;-79
2022/04/02 02:45:32;;;;;;;4.60;2.30;;;;;;;0.14;70.22;101577.41;4700486;30;20150;-79
2022/04/02 03:16:04;;;;;;;4.63;2.20;;;;;;;-0.53;72.30;101529.66;4696516;30;20084;-78
2022/04/02 03:25:58;;;;;;;4.47;2.42;;;;;;;-0.11;71.28;101600.44;4699190;30;20046;-76
2022/04/02 03:28:29;;;;;;;3.42;2.28;;;;;;;-0.91;70.94;101470.69;4699565;30;20491;-76
2022/04/02 03:31:16;;;;;;;4.45;2.10;;;;;;;-0.14;71.48;101600.47;4669183;30;20041;-76
2022/04/02 03:34:12;;;;;;;3.03;2.30;;;;;;;-0.18;71.55;101593.72;4699947;30;20037;-78
2022/04/02 03:50:43;;;;;;;4.43;2.25;;;;;;;-0.35;72.43;101614.13;4699745;30;20184;-76
2022/04/02 03:53:33;;;;;;;3.83;2.22;;;;;;;-0.38;72.34;101610.78;4699399;30;20480;-77
2022/04/02 03:56:42;;;;;;;4.15;2.42;;;;;;;-0.37;72.54;101617.53;4699615;30;20132;-77
2022/04/02 03:59:36;;;;;;;2.53;1.83;;;;;;;-0.42;72.68;101617.53;4699052;30;20042;-76
2022/04/02 04:05:58;;;;;;;4.30;2.47;;;;;;;-1.59;72.74;101443.94;4699276;30;20066;-77
2022/04/02 04:09:16;;;;;;;;;;;;;;;;;;;;;
2022/04/02 04:12:37;;;;;;;3.50;2.08;;;;;;;-1.49;73.25;101470.09;4683754;30;20053;-76
2022/04/02 04:19:05;;;;;;;3.90;2.13;;;;;;;-0.47;72.91;101626.03;4698862;30;20121;-78
2022/04/02 04:21:37;;;;;;;3.13;1.75;;;;;;;-0.45;72.76;101637.84;4699289;30;20057;-76
2022/04/02 05:13:50;;;;;;;4.78;2.00;;;;;;;-1.05;71.26;101568.78;4759819;25;20135;-78
2022/04/02 05:17:02;;;;;;;4.10;2.17;;;;;;;-0.38;72.13;101676.75;4651765;30;20512;-76
2022/04/02 05:22:59;;;;;;;5.90;2.50;;;;;;;-0.41;72.13;101686.88;4667830;30;20515;-77
2022/04/02 05:35:55;;;;;;;4.63;1.60;;;;;;;-0.38;72.41;101692.81;4660399;30;19928;-77
2022/04/02 05:38:20;;;;;;;5.70;2.33;;;;;;;-0.83;72.57;101621.94;4667069;30;20050;-77
2022/04/02 05:44:26;;;;;;;4.95;2.28;;;;;;;-1.38;72.64;101540.97;4666926;30;20119;-77
2022/04/02 05:47:00;;;;;;;3.75;1.92;;;;;;;-0.28;72.28;101708.00;4667066;30;20065;-76
2022/04/02 05:53:22;;;;;;;3.38;2.10;;;;;;;-1.21;72.30;101550.22;4667015;30;20107;-78
2022/04/02 05:56:27;;;;;;;4.55;2.13;;;;;;;-0.05;71.75;101731.56;4666217;30;20540;-79
2022/04/02 05:58:55;;;;;;;4.35;2.20;;;;;;;-1.22;71.62;101530.81;4614068;31;20122;-77
2022/04/02 06:01:31;;;;;;;3.03;1.90;;;;;;;-0.44;71.67;101662.38;4614120;31;20052;-78
2022/04/02 06:04:28;;;;;;;4.03;2.30;;;;;;;0.02;71.70;101724.78;4613400;31;20127;-80
2022/04/02 06:13:25;;;;;;;3.88;2.10;;;;;;;0.13;71.98;101741.66;5107189;25;20057;-77
2022/04/02 08:37:07;;;;;;;5.68;2.80;;;;;;;3.25;63.88;101873.31;4760422;25;20067;-79
2022/04/02 08:40:11;;;;;;;5.70;3.03;;;;;;;3.41;64.28;101873.00;4683364;30;20062;-76
2022/04/02 09:04:57;;;;;;;4.97;2.78;;;;;;;3.10;64.21;101900.72;4668012;30;20053;-77
2022/04/02 09:11:09;;;;;;;6.25;2.72;;;;;;;2.17;64.58;101733.78;4667850;30;20146;-78
2022/04/02 09:14:16;;;;;;;4.50;2.97;;;;;;;3.33;63.56;101907.19;4667925;30;20070;-76
2022/04/02 09:17:07;;;;;;;8.30;3.17;;;;;;;3.32;64.00;101890.19;4667916;30;20097;-78
2022/04/02 09:19:54;;;;;;;5.78;3.03;;;;;;;3.50;63.24;101924.81;4667546;30;20038;-77
2022/04/02 09:22:43;;;;;;;5.00;2.70;;;;;;;3.58;62.47;101911.03;4667628;30;20098;-77
2022/04/02 09:25:08;;;;;;;6.03;3.13;;;;;;;3.82;61.89;101922.53;4667426;30;20042;-78
2022/04/02 09:28:03;;;;;;;5.25;2.47;;;;;;;3.95;61.97;101918.09;4667676;30;20038;-78
2022/04/02 09:30:59;;;;;;;5.13;2.95;;;;;;;4.26;62.26;101926.03;4667423;30;20477;-77
2022/04/02 09:33:41;;;;;;;7.10;2.80;;;;;;;4.64;60.68;101924.41;4667261;30;20073;-81
2022/04/02 09:36:34;;;;;;;6.25;2.70;;;;;;;5.05;61.68;101926.06;4667171;30;20045;-78
2022/04/02 09:39:21;;;;;;;6.72;2.85;;;;;;;5.17;60.17;101926.63;4666212;30;20037;-78
2022/04/02 09:42:21;;;;;;;5.60;2.60;;;;;;;4.85;59.34;101896.66;4667192;30;20031;-78
2022/04/02 09:45:27;;;;;;;4.88;3.00;;;;;;;5.06;60.66;101930.31;4666543;30;20035;-77
2022/04/02 09:48:15;;;;;;;4.97;3.33;;;;;;;5.19;60.27;101913.78;4666812;30;20094;-78
2022/04/02 09:50:42;;;;;;;4.82;2.72;;;;;;;5.28;59.75;101923.81;4667049;30;20113;-77
2022/04/02 09:53:26;;;;;;;7.22;3.22;;;;;;;5.11;58.74;101933.59;4651534;30;20035;-77
2022/04/02 09:56:24;;;;;;;5.97;3.03;;;;;;;4.86;60.58;101929.03;4666986;30;20030;-78
2022/04/02 09:58:57;;;;;;;3.17;2.25;;;;;;;4.64;56.90;101922.69;4667311;30;20035;-76
2022/04/02 10:01:38;;;;;;;4.35;2.63;;;;;;;4.29;56.70;101929.34;4659637;30;20447;-77
2022/04/02 10:04:24;;;;;;;6.25;2.40;;;;;;;4.05;58.21;101926.44;4684538;30;20030;-79
2022/04/02 10:06:55;;;;;;;4.45;2.53;;;;;;;3.78;57.23;101897.94;4683563;30;20519;-78
2022/04/02 10:09:23;;;;;;;4.43;2.70;;;;;;;3.94;59.21;101929.19;4684324;30;20045;-78
2022/04/02 10:11:55;;;;;;;5.45;2.97;;;;;;;3.71;59.47;101878.47;4683954;30;20089;-78
2022/04/02 10:14:27;;;;;;;6.60;2.97;;;;;;;3.78;57.72;101909.88;4668461;30;20133;-75
2022/04/02 10:19:39;;;;;;;5.30;3.05;;;;;;;2.74;57.42;101760.97;4790311;25;20066;-78
2022/04/02 10:22:43;;;;;;;5.47;3.38;;;;;;;3.74;59.16;101932.91;4666471;30;20030;-80
2022/04/02 10:25:49;;;;;;;4.80;2.78;;;;;;;3.84;58.95;101927.66;4665886;30;20318;-81
2022/04/02 10:28:29;;;;;;;5.65;3.10;;;;;;;2.80;59.95;101741.31;4666591;30;20054;-76
2022/04/02 10:31:11;;;;;;;4.90;3.13;;;;;;;3.56;58.83;101859.16;4666577;30;20037;-75
2022/04/02 10:33:52;;;;;;;5.78;2.97;;;;;;;3.30;58.76;101784.72;4666351;30;20073;-76
2022/04/02 10:40:11;;;;;;;6.45;2.88;;;;;;;4.24;60.66;101918.38;4613455;31;20051;-78
2022/04/02 10:43:29;;;;;;;6.85;3.20;;;;;;;3.09;61.26;101735.72;4613517;31;20048;-79
2022/04/02 10:52:10;;;;;;;4.93;2.85;;;;;;;3.69;59.13;101875.94;5162637;25;20134;-76
2022/04/02 10:54:54;;;;;;;4.88;3.05;;;;;;;3.76;59.44;101881.78;4699104;30;20521;-73
2022/04/02 10:57:32;;;;;;;4.30;2.80;;;;;;;3.61;58.99;101808.81;4686483;30;20041;-77
2022/04/02 11:00:05;;;;;;;4.43;2.50;;;;;;;4.01;56.34;101852.34;4700213;30;20037;-75
2022/04/02 11:02:39;;;;;;;3.80;2.60;;;;;;;4.03;57.13;101873.63;4700279;30;20029;-75
2022/04/02 11:05:06;;;;;;;4.72;2.70;;;;;;;4.01;57.31;101877.91;4684508;30;20052;-74
2022/04/02 11:07:37;;;;;;;6.10;2.53;;;;;;;3.91;57.78;101857.66;4699912;30;20387;-76
2022/04/02 11:10:05;;;;;;;5.82;2.67;;;;;;;3.94;56.58;101872.97;4699990;30;20021;-75
2022/04/02 11:12:41;;;;;;;5.13;3.00;;;;;;;4.11;56.43;101883.69;4699652;30;20057;-73
2022/04/02 11:15:25;;;;;;;5.78;2.63;;;;;;;4.64;57.54;101906.50;4699953;30;20450;-75
2022/04/02 11:17:53;;;;;;;5.43;2.67;;;;;;;4.84;51.87;101892.41;4700160;30;20100;-77
2022/04/02 11:20:29;;;;;;;4.10;2.30;;;;;;;4.68;51.81;101837.31;4700063;30;20030;-76
2022/04/02 11:23:12;;;;;;;4.32;2.30;;;;;;;4.89;52.43;101877.78;4700024;30;20037;-75
2022/04/02 11:25:49;;;;;;;4.30;2.22;;;;;;;4.88;49.91;101870.97;4684279;30;20146;-78
2022/04/02 11:28:23;;;;;;;3.33;1.90;;;;;;;5.13;48.99;101911.41;4699884;30;20052;-75
2022/04/02 11:31:03;;;;;;;2.90;1.88;;;;;;;5.11;48.25;101908.00;4699697;30;20054;-74
2022/04/02 11:33:32;;;;;;;3.97;1.98;;;;;;;5.01;48.05;101893.72;4699743;30;20038;-75
2022/04/02 11:35:59;;;;;;;4.05;1.80;;;;;;;4.98;48.19;101907.44;4699736;30;20059;-74
2022/04/02 11:38:49;;;;;;;2.75;1.95;;;;;;;4.93;48.83;101916.13;4699820;30;20118;-76
2022/04/02 11:41:24;;;;;;;2.78;1.63;;;;;;;4.97;46.49;101917.72;4699952;30;20032;-77
2022/04/02 11:43:52;;;;;;;4.40;1.73;;;;;;;5.09;47.58;101915.72;4700023;30;20034;-75
2022/04/02 11:46:25;;;;;;;2.90;1.98;;;;;;;5.11;46.86;101857.66;4700133;30;20041;-74
2022/04/02 11:49:01;;;;;;;4.10;1.80;;;;;;;5.46;44.61;101902.06;4700177;30;20029;-75
2022/04/02 11:51:33;;;;;;;3.17;1.77;;;;;;;5.41;45.50;101876.56;4699863;30;20041;-77
2022/04/02 11:54:10;;;;;;;4.10;1.80;;;;;;;5.24;46.14;101855.63;4698456;30;20503;-75
2022/04/02 11:56:40;;;;;;;3.78;2.20;;;;;;;5.27;47.10;101868.34;4699800;30;20037;-75
2022/04/02 11:59:15;;;;;;;3.90;2.40;;;;;;;5.60;47.03;101917.06;4699970;30;20030;-76
2022/04/02 12:01:48;;;;;;;4.18;1.80;;;;;;;5.72;46.19;101915.06;4699566;30;20057;-84
2022/04/02 12:04:16;;;;;;;2.95;1.95;;;;;;;5.55;46.69;101876.22;4699497;30;20033;-76
2022/04/02 12:06:44;;;;;;;3.80;1.70;;;;;;;5.81;46.27;101914.00;4699457;30;20398;-75
2022/04/02 12:09:15;;;;;;;3.88;2.08;;;;;;;5.73;46.71;101906.50;4699778;30;20034;-81
2022/04/02 12:12:00;;;;;;;3.73;1.70;;;;;;;5.82;46.90;101912.28;4699679;30;20044;-86
2022/04/02 12:14:34;;;;;;;2.67;1.70;;;;;;;5.68;45.67;101904.91;4699601;30;20038;-75
2022/04/02 12:17:01;;;;;;;2.55;1.25;;;;;;;5.38;43.13;101909.06;4699168;30;20490;-84
2022/04/02 12:19:51;;;;;;;2.97;1.65;;;;;;;5.13;45.70;101883.22;4699487;30;20121;-84
2022/04/02 12:22:30;;;;;;;3.58;1.60;;;;;;;5.32;44.03;101907.53;4699525;30;20026;-73
2022/04/02 12:24:59;;;;;;;3.15;1.83;;;;;;;5.44;43.92;101925.16;4699318;30;20040;-77
2022/04/02 12:27:26;;;;;;;3.08;1.80;;;;;;;5.53;44.51;101910.44;4699308;30;20109;-80
2022/04/02 12:29:54;;;;;;;3.47;1.70;;;;;;;5.50;46.06;101890.84;4699550;30;20061;-86
2022/04/02 12:32:38;;;;;;;3.92;1.83;;;;;;;5.57;43.95;101865.91;4699757;30;20108;-77
2022/04/02 12:35:07;;;;;;;3.60;1.85;;;;;;;5.98;42.26;101903.31;4699773;30;20042;-78
2022/04/02 12:37:40;;;;;;;2.88;1.63;;;;;;;6.24;43.75;101900.06;4683718;30;20496;-82
2022/04/02 12:40:20;;;;;;;3.22;1.60;;;;;;;6.38;43.13;101892.78;4699243;30;20069;-76
2022/04/02 12:42:47;;;;;;;3.58;1.80;;;;;;;6.36;44.13;101897.13;4683723;30;20037;-77
2022/04/02 12:45:18;;;;;;;1.85;1.30;;;;;;;6.10;42.74;101881.66;4699085;30;20492;-77
2022/04/02 12:48:06;;;;;;;2.67;1.52;;;;;;;6.09;44.66;101920.97;4699382;30;20073;-77
2022/04/02 12:50:48;;;;;;;2.95;1.30;;;;;;;5.99;44.21;101910.97;4699021;30;20506;-76
2022/04/02 12:53:26;;;;;;;3.55;1.60;;;;;;;5.94;43.53;101925.63;4698981;30;20112;-82
2022/04/02 12:55:54;;;;;;;3.05;1.55;;;;;;;5.79;43.19;101907.19;4699466;30;20042;-80
2022/04/02 12:58:31;;;;;;;3.33;1.65;;;;;;;5.62;44.10;101916.19;4699541;30;20033;-81
2022/04/02 13:01:17;;;;;;;2.30;1.60;;;;;;;5.46;44.59;101923.38;4699053;30;20420;-79
2022/04/02 13:03:44;;;;;;;2.70;1.42;;;;;;;5.09;45.13;101861.94;4698977;30;20045;-79
2022/04/02 13:06:20;;;;;;;2.63;1.60;;;;;;;5.76;43.74;101921.78;4699076;30;20042;-79
2022/04/02 13:09:21;;;;;;;4.50;1.80;;;;;;;5.88;45.02;101884.75;4698806;30;20581;-80
2022/04/02 13:11:56;;;;;;;3.85;1.98;;;;;;;6.02;43.95;101907.50;4698844;30;20476;-76
2022/04/02 13:14:30;;;;;;;2.67;1.65;;;;;;;5.77;46.93;101912.38;4701362;30;20067;-84
2022/04/02 13:17:18;;;;;;;3.92;1.92;;;;;;;5.54;48.04;101915.53;4702228;30;20443;-78
2022/04/02 13:22:41;;;;;;;3.78;1.92;;;;;;;4.94;48.14;101856.38;4700889;30;20044;-78
2022/04/02 14:00:24;;;;;;;2.53;1.60;;;;;;;5.86;49.07;101926.69;4606459;24;20108;-77
2022/04/02 14:02:51;;;;;;;3.73;1.80;;;;;;;5.56;48.85;101902.66;4667009;30;20113;-74
2022/04/02 14:05:27;;;;;;;4.32;1.83;;;;;;;5.57;50.13;101923.13;4666897;30;20042;-77
2022/04/02 14:08:00;;;;;;;3.75;1.60;;;;;;;5.22;49.89;101888.13;4666983;30;20397;-76
2022/04/02 14:10:59;;;;;;;4.43;1.77;;;;;;;5.43;50.58;101941.41;4934999;25;20178;-77
2022/04/02 14:17:21;;;;;;;3.17;1.70;;;;;;;3.96;50.12;101757.06;4700566;30;20125;-81
2022/04/02 14:23:18;;;;;;;2.47;1.50;;;;;;;5.46;48.05;101933.63;4902043;24;20062;-78
2022/04/02 14:26:36;;;;;;;2.97;1.90;;;;;;;5.51;48.14;101925.84;4665367;30;20045;-76
2022/04/02 14:43:00;;;;;;;2.17;1.23;;;;;;;5.90;46.87;101925.69;4666703;30;20400;-79
2022/04/02 14:46:09;;;;;;;3.67;1.67;;;;;;;5.70;46.77;101934.78;4666473;30;20050;-78
2022/04/02 14:49:11;;;;;;;2.50;1.58;;;;;;;5.43;46.36;101933.72;4666294;30;20038;-77
2022/04/02 14:55:48;;;;;;;2.67;1.50;;;;;;;4.21;47.98;101775.25;4666326;30;20057;-78
2022/04/02 14:58:58;;;;;;;3.33;1.60;;;;;;;5.13;47.60;101942.97;4666087;30;20038;-78
2022/04/02 15:12:24;;;;;;;2.90;1.42;;;;;;;4.89;47.10;101951.16;4665903;30;20120;-78
2022/04/02 15:15:09;;;;;;;2.80;1.48;;;;;;;4.81;49.64;101963.25;4613257;31;20052;-78
2022/04/02 15:21:12;;;;;;;4.40;1.42;;;;;;;4.49;55.53;101969.88;4612810;31;20070;-78
2022/04/02 15:23:58;;;;;;;3.30;1.95;;;;;;;4.35;55.91;101978.69;4599219;31;20570;-77
2022/04/02 15:27:10;;;;;;;3.78;2.00;;;;;;;4.15;58.39;101995.25;4612904;31;20541;-77
2022/04/02 15:29:43;;;;;;;3.47;1.73;;;;;;;3.65;62.55;101968.84;4613093;31;20139;-78
2022/04/02 15:32:39;;;;;;;2.58;1.50;;;;;;;3.41;62.56;101981.97;4563492;31;20576;-77
2022/04/02 15:35:43;;;;;;;5.47;2.42;;;;;;;3.41;62.05;101999.84;4563290;31;20105;-78
2022/04/02 15:39:10;;;;;;;3.58;1.90;;;;;;;3.26;63.22;101994.97;4562757;31;20037;-78
2022/04/02 15:55:44;;;;;;;3.20;1.85;;;;;;;3.61;61.54;101992.72;4612970;31;20141;-77
2022/04/02 15:58:09;;;;;;;2.80;1.73;;;;;;;3.73;62.11;101995.06;4612330;31;20276;-84
2022/04/02 16:01:23;;;;;;;3.05;1.55;;;;;;;3.89;60.99;101994.84;4612586;31;20573;-78
2022/04/02 16:03:49;;;;;;;3.17;1.50;;;;;;;3.00;60.38;101821.78;4651650;30;20058;-81
2022/04/02 16:09:39;;;;;;;4.97;1.80;;;;;;;4.25;59.76;102001.03;4665360;30;20153;-78
2022/04/02 16:15:26;;;;;;;2.63;1.60;;;;;;;4.04;57.77;101946.03;4665001;30;20101;-79
2022/04/02 16:18:28;;;;;;;4.07;1.65;;;;;;;4.39;56.39;102003.34;4665103;30;20035;-83
2022/04/02 16:26:10;;;;;;;2.65;1.48;;;;;;;4.40;55.60;102010.97;4664675;30;20070;-78
2022/04/02 16:44:39;;;;;;;4.00;1.52;;;;;;;4.14;55.82;102034.47;4886343;25;20381;31
2022/04/02 16:51:44;;;;;;;3.53;2.00;;;;;;;4.05;57.37;102042.28;4651129;30;20461;-77
2022/04/02 17:01:11;;;;;;;3.97;2.00;;;;;;;3.97;59.43;102044.13;4651085;30;20058;-82
2022/04/02 17:03:55;;;;;;;3.10;1.73;;;;;;;3.42;59.86;101960.66;4651085;30;20441;-81
2022/04/02 17:06:47;;;;;;;3.25;1.90;;;;;;;3.88;60.43;102039.16;4650723;30;20035;-73
2022/04/02 17:09:26;;;;;;;4.00;2.05;;;;;;;3.48;60.36;101975.06;4650520;30;20435;-78
2022/04/02 17:12:40;;;;;;;4.13;1.98;;;;;;;2.81;60.64;101872.25;4650666;30;20027;-77
2022/04/02 17:18:24;;;;;;;2.47;1.48;;;;;;;3.92;58.77;102049.28;4901865;25;20061;-77
2022/04/02 17:21:11;;;;;;;3.40;1.63;;;;;;;3.53;58.65;101993.69;4701878;30;20038;-77
2022/04/02 17:23:41;;;;;;;4.22;1.50;;;;;;;3.88;58.01;102059.59;4701881;30;20065;-78
2022/04/02 17:26:26;;;;;;;2.22;1.50;;;;;;;3.82;57.38;102052.84;4701379;30;20052;-77
2022/04/02 17:28:51;;;;;;;3.97;1.70;;;;;;;3.81;57.21;102061.38;4701697;30;20151;-77
2022/04/02 17:31:27;;;;;;;1.98;1.20;;;;;;;3.81;57.12;102068.22;4701620;30;20450;-76
2022/04/02 17:34:25;;;;;;;1.88;1.20;;;;;;;3.78;56.35;102061.44;4701861;30;20442;-78
2022/04/02 17:37:05;;;;;;;2.58;1.42;;;;;;;3.74;55.20;102070.03;4665287;30;20046;-81
2022/04/02 17:39:34;;;;;;;4.65;2.00;;;;;;;3.67;55.62;102066.72;4665168;30;20126;-78
2022/04/02 17:42:10;;;;;;;3.15;1.45;;;;;;;3.65;56.91;102073.56;4650527;30;20062;-79
2022/04/02 17:44:36;;;;;;;3.33;1.40;;;;;;;3.60;56.11;102071.91;4664858;30;20049;-79
2022/04/02 17:47:04;;;;;;;3.42;1.50;;;;;;;3.42;56.20;102050.88;4664840;30;20050;-79
2022/04/02 17:49:37;;;;;;;3.10;1.80;;;;;;;3.28;56.25;102034.91;4665021;30;20043;-77
2022/04/02 17:52:22;;;;;;;3.40;1.92;;;;;;;3.45;56.91;102084.06;4664777;30;20038;-78
2022/04/02 17:54:48;;;;;;;2.67;1.70;;;;;;;3.26;56.29;102064.72;4650672;30;20046;-78
2022/04/02 17:57:13;;;;;;;2.47;1.60;;;;;;;3.38;56.60;102086.69;4650796;30;20524;-76
2022/04/02 17:59:49;;;;;;;2.28;1.80;;;;;;;3.36;56.83;102104.59;4663644;30;20050;-77
2022/04/02 18:02:16;;;;;;;4.22;1.92;;;;;;;2.87;57.54;102022.69;4664805;30;20571;-78
2022/04/02 18:04:42;;;;;;;3.50;1.73;;;;;;;2.86;57.75;102039.69;4664914;30;20062;-78
2022/04/02 18:07:22;;;;;;;4.18;1.58;;;;;;;3.01;58.15;102096.50;4664500;30;20050;-76
2022/04/02 18:09:47;;;;;;;4.03;1.80;;;;;;;2.74;58.70;102057.66;4664671;30;20125;-78
2022/04/02 18:12:16;;;;;;;3.42;1.90;;;;;;;2.87;58.94;102091.56;4679838;30;20120;-78
2022/04/02 18:14:42;;;;;;;4.32;1.90;;;;;;;2.64;59.69;102062.88;4700581;30;20049;-75
2022/04/02 18:17:09;;;;;;;3.08;1.73;;;;;;;2.61;60.47;102061.22;4700862;30;20054;-78
2022/04/02 18:19:35;;;;;;;3.17;1.70;;;;;;;2.94;60.92;102115.28;4701216;30;20076;-77
2022/04/02 18:22:01;;;;;;;4.68;2.00;;;;;;;2.96;60.74;102127.19;4700865;30;20337;-78
2022/04/02 18:24:28;;;;;;;3.33;1.85;;;;;;;2.74;61.15;102083.19;4700942;30;20434;-78
2022/04/02 18:26:54;;;;;;;4.93;1.90;;;;;;;2.96;60.39;102127.19;4700655;30;20180;-78
2022/04/02 18:29:20;;;;;;;2.65;1.70;;;;;;;3.00;60.69;102128.84;4699580;30;20116;-78
2022/04/02 18:31:45;;;;;;;5.18;2.20;;;;;;;3.05;60.10;102137.28;4701270;30;20521;-77
2022/04/02 18:34:11;;;;;;;2.85;1.60;;;;;;;2.99;59.39;102128.84;4700837;30;20034;-77
2022/04/02 18:36:36;;;;;;;4.20;2.05;;;;;;;2.95;59.53;102120.41;4700520;30;20128;-77
2022/04/02 18:39:02;;;;;;;4.35;1.80;;;;;;;2.84;60.02;102107.72;4700563;30;20060;-78
2022/04/02 18:41:28;;;;;;;3.15;1.88;;;;;;;3.01;59.71;102143.28;4700195;30;20067;-78
2022/04/02 18:43:54;;;;;;;2.95;1.73;;;;;;;2.88;60.85;102127.25;4700496;30;20475;-77
2022/04/02 18:46:20;;;;;;;3.83;1.70;;;;;;;2.93;61.02;102145.06;4700247;30;20064;-78
2022/04/02 18:48:45;;;;;;;3.80;2.00;;;;;;;2.83;61.60;102143.47;4700153;30;20041;-78
2022/04/02 18:51:10;;;;;;;3.65;1.80;;;;;;;2.78;61.40;102153.72;4700321;30;20040;-78
2022/04/02 18:53:36;;;;;;;4.68;1.95;;;;;;;2.71;61.78;102154.63;4700445;30;20034;-77
2022/04/02 18:56:01;;;;;;;3.15;1.88;;;;;;;2.64;61.26;102163.19;4700352;30;20088;-78
2022/04/02 18:58:26;;;;;;;4.35;2.08;;;;;;;2.42;61.99;102144.69;4700324;30;20025;-77
2022/04/02 19:00:52;;;;;;;2.65;1.90;;;;;;;2.44;61.97;102165.91;4700261;30;20555;-81
2022/04/02 19:03:18;;;;;;;5.45;2.45;;;;;;;2.16;62.39;102134.66;4700407;30;20439;-78
2022/04/02 19:05:44;;;;;;;4.75;2.40;;;;;;;2.35;62.83;102172.78;4700085;30;20387;-78
2022/04/02 19:08:12;;;;;;;3.58;1.90;;;;;;;2.26;62.48;102179.66;4700016;30;20053;-77
2022/04/02 19:10:38;;;;;;;4.43;2.33;;;;;;;2.05;62.91;102156.00;4699787;30;20060;-77
2022/04/02 19:13:03;;;;;;;4.43;2.10;;;;;;;2.12;62.72;102180.59;4699698;30;20037;-79
2022/04/02 19:15:29;;;;;;;3.00;1.88;;;;;;;1.93;63.12;102167.94;4698805;30;20384;-77
2022/04/02 19:17:54;;;;;;;3.33;2.10;;;;;;;1.71;62.92;102138.38;4699900;30;20399;-78
2022/04/02 19:20:21;;;;;;;5.28;2.10;;;;;;;1.95;63.50;102198.50;4700021;30;20044;-77
2022/04/02 19:22:47;;;;;;;4.20;2.10;;;;;;;1.89;63.44;102199.41;4699862;30;20095;-79
2022/04/02 19:25:15;;;;;;;3.20;2.05;;;;;;;1.87;63.48;102197.69;4699729;30;20042;-78
2022/04/02 19:27:41;;;;;;;4.57;2.00;;;;;;;1.84;63.04;102205.34;4699772;30;20029;-77
2022/04/02 19:30:07;;;;;;;4.93;2.13;;;;;;;1.82;62.71;102204.53;4699619;30;20379;-84
2022/04/02 19:32:32;;;;;;;5.50;2.40;;;;;;;1.75;62.67;102197.75;4699556;30;20025;-80
2022/04/02 19:34:58;;;;;;;3.15;1.73;;;;;;;1.48;62.31;102156.31;4699910;30;20428;-84
2022/04/02 19:37:23;;;;;;;2.95;1.70;;;;;;;1.47;61.80;102174.09;4699829;30;20033;-82
2022/04/02 19:39:48;;;;;;;6.45;1.90;;;;;;;1.71;61.17;102213.06;4699883;30;20918;-79
2022/04/02 19:42:15;;;;;;;5.70;2.20;;;;;;;1.69;60.74;102222.41;4699617;30;20116;-76
2022/04/02 19:44:40;;;;;;;3.75;1.85;;;;;;;1.66;60.03;102216.47;4699568;30;20065;-79
2022/04/02 19:47:06;;;;;;;4.43;2.05;;;;;;;1.65;60.41;102220.72;4699374;30;20041;-77
2022/04/02 19:49:32;;;;;;;4.45;2.13;;;;;;;1.63;60.26;102226.66;4699515;30;20480;-77
2022/04/02 19:52:01;;;;;;;6.72;2.10;;;;;;;1.54;60.16;102227.53;4699587;30;20092;-78
2022/04/02 19:54:30;;;;;;;3.47;1.88;;;;;;;1.52;60.16;102223.31;4699710;30;20117;-78
2022/04/02 19:56:55;;;;;;;3.85;1.90;;;;;;;1.60;59.73;102234.34;4699522;30;20041;-78
2022/04/02 19:59:21;;;;;;;3.80;2.00;;;;;;;1.59;60.14;102230.94;4699295;30;20041;-79
2022/04/02 20:01:46;;;;;;;3.90;2.10;;;;;;;1.28;59.30;102198.75;4683679;30;20046;-79
2022/04/02 20:04:12;;;;;;;3.42;1.63;;;;;;;1.58;58.36;102236.88;4699530;30;20037;-80
2022/04/02 20:06:37;;;;;;;5.30;2.00;;;;;;;1.60;58.77;102245.34;4699480;30;20041;-79
2022/04/02 20:09:03;;;;;;;3.38;1.90;;;;;;;1.38;58.68;102211.50;4699427;30;20073;-78
2022/04/02 20:11:28;;;;;;;5.35;2.17;;;;;;;1.45;58.11;102222.47;4684182;30;20479;-78
2022/04/02 20:13:54;;;;;;;2.53;1.55;;;;;;;1.32;57.62;102203.00;4699296;30;20096;-79
2022/04/02 20:16:20;;;;;;;2.90;1.90;;;;;;;1.45;57.98;102235.22;4698962;30;20072;-78
2022/04/02 20:18:46;;;;;;;2.53;1.80;;;;;;;1.47;58.01;102255.56;4699503;30;20042;-79
2022/04/02 20:21:14;;;;;;;4.45;1.92;;;;;;;1.44;58.18;102253.88;4699372;30;20041;-83
2022/04/02 20:23:40;;;;;;;4.28;2.08;;;;;;;1.36;58.79;102248.81;4701198;30;20110;-78
2022/04/02 20:26:07;;;;;;;4.00;2.13;;;;;;;1.14;58.20;102217.47;4702329;30;20069;-79
2022/04/02 20:35:28;;;;;;;3.50;1.95;;;;;;;0.68;58.61;102188.69;4702983;30;20607;-77
2022/04/02 20:38:13;;;;;;;4.53;1.70;;;;;;;0.28;58.79;102137.00;4702700;30;20084;-77
2022/04/02 20:40:44;;;;;;;2.47;1.60;;;;;;;0.63;58.32;102203.09;4702718;30;20403;-77
2022/04/02 20:43:24;;;;;;;;;;;;;;;1.01;59.31;102274.31;4702766;30;20202;-77
2022/04/02 20:45:58;;;;;;;4.07;1.90;;;;;;;0.52;58.99;102208.19;4702654;30;19923;-77
2022/04/02 20:48:25;;;;;;;3.42;1.90;;;;;;;0.08;59.30;102144.59;4702348;30;20112;-77
2022/04/02 20:51:07;;;;;;;3.60;1.58;;;;;;;-0.35;59.17;102088.69;4702499;30;20038;-77